sensor_id;sensor_type;location;lat;lon;timestamp;temperature;humidity
44817;DHT22;30529;53.570;9.964;2022-12-18T00:01:25;-2.70;99.90
44817;DHT22;30529;53.570;9.964;2022-12-18T00:03:53;-2.80;99.90
44817;DHT22;30529;53.570;9.964;2022-12-18T00:06:20;-2.80;99.90
44817;DHT22;30529;53.570;9.964;2022-12-18T00:08:47;-2.80;99.90
44817;DHT22;30529;53.570;9.964;2022-12-18T00:11:15;-2.80;99.90
44817;DHT22;30529;53.570;9.964;2022-12-18T00:13:42;-2.80;99.90
44817;DHT22;30529;53.570;9.964;2022-12-18T00:16:10;-2.80;99.90
44817;DHT22;30529;53.570;9.964;2022-12-18T00:18:37;-2.90;99.90
44817;DHT22;30529;53.570;9.964;2022-12-18T00:21:05;-2.90;99.90
44817;DHT22;30529;53.570;9.964;2022-12-18T00:23:33;-2.80;99.90
44817;DHT22;30529;53.570;9.964;2022-12-18T00:26:14;-2.80;99.90
44817;DHT22;30529;53.570;9.964;2022-12-18T00:28:41;-2.80;99.90
44817;DHT22;30529;53.570;9.964;2022-12-18T00:31:10;-2.90;99.90
44817;DHT22;30529;53.570;9.964;2022-12-18T00:33:37;-2.90;99.90
44817;DHT22;30529;53.570;9.964;2022-12-18T00:36:09;-2.90;99.90
44817;DHT22;30529;53.570;9.964;2022-12-18T00:38:36;-2.90;99.90
44817;DHT22;30529;53.570;9.964;2022-12-18T00:41:03;-2.90;99.90
44817;DHT22;30529;53.570;9.964;2022-12-18T00:43:29;-2.90;99.90
44817;DHT22;30529;53.570;9.964;2022-12-18T00:45:55;-2.90;99.90
44817;DHT22;30529;53.570;9.964;2022-12-18T00:48:21;-2.70;99.90
44817;DHT22;30529;53.570;9.964;2022-12-18T00:50:48;-2.20;99.90
44817;DHT22;30529;53.570;9.964;2022-12-18T00:53:17;-2.10;99.90
44817;DHT22;30529;53.570;9.964;2022-12-18T00:55:45;-2.40;99.90
44817;DHT22;30529;53.570;9.964;2022-12-18T00:58:13;-2.50;99.90
44817;DHT22;30529;53.570;9.964;2022-12-18T01:00:39;-2.70;99.90
44817;DHT22;30529;53.570;9.964;2022-12-18T01:03:06;-2.90;99.90
44817;DHT22;30529;53.570;9.964;2022-12-18T01:05:32;-2.90;99.90
44817;DHT22;30529;53.570;9.964;2022-12-18T01:07:59;-3.00;99.90
44817;DHT22;30529;53.570;9.964;2022-12-18T01:10:25;-3.00;99.90
44817;DHT22;30529;53.570;9.964;2022-12-18T01:12:51;-3.00;99.90
44817;DHT22;30529;53.570;9.964;2022-12-18T01:15:18;-3.00;99.90
44817;DHT22;30529;53.570;9.964;2022-12-18T01:17:44;-3.00;99.90
44817;DHT22;30529;53.570;9.964;2022-12-18T01:20:11;-3.10;99.90
44817;DHT22;30529;53.570;9.964;2022-12-18T01:22:37;-3.10;99.90
44817;DHT22;30529;53.570;9.964;2022-12-18T01:25:04;-3.10;99.90
44817;DHT22;30529;53.570;9.964;2022-12-18T01:27:33;-3.10;99.90
44817;DHT22;30529;53.570;9.964;2022-12-18T01:29:59;-3.10;99.90
44817;DHT22;30529;53.570;9.964;2022-12-18T01:32:25;-3.10;99.90
44817;DHT22;30529;53.570;9.964;2022-12-18T01:34:51;-3.10;99.90
44817;DHT22;30529;53.570;9.964;2022-12-18T01:37:16;-3.10;99.90
44817;DHT22;30529;53.570;9.964;2022-12-18T01:39:43;-3.10;99.90
44817;DHT22;30529;53.570;9.964;2022-12-18T01:42:14;-3.10;99.90
44817;DHT22;30529;53.570;9.964;2022-12-18T01:45:02;-3.10;99.90
44817;DHT22;30529;53.570;9.964;2022-12-18T01:47:30;-3.20;99.90
44817;DHT22;30529;53.570;9.964;2022-12-18T01:50:00;-3.20;99.90
44817;DHT22;30529;53.570;9.964;2022-12-18T01:52:30;-3.20;99.90
44817;DHT22;30529;53.570;9.964;2022-12-18T01:54:57;-3.20;99.90
44817;DHT22;30529;53.570;9.964;2022-12-18T01:57:25;-3.20;99.90
44817;DHT22;30529;53.570;9.964;2022-12-18T01:59:53;-3.30;99.90
44817;DHT22;30529;53.570;9.964;2022-12-18T02:02:20;-3.30;99.90
44817;DHT22;30529;53.570;9.964;2022-12-18T02:04:46;-3.30;99.90
44817;DHT22;30529;53.570;9.964;2022-12-18T02:10:20;-3.30;99.90
44817;DHT22;30529;53.570;9.964;2022-12-18T02:18:48;-3.30;99.90
44817;DHT22;30529;53.570;9.964;2022-12-18T02:24:10;-3.40;99.90
44817;DHT22;30529;53.570;9.964;2022-12-18T02:26:49;-3.40;99.90
44817;DHT22;30529;53.570;9.964;2022-12-18T02:29:20;-3.40;99.90
44817;DHT22;30529;53.570;9.964;2022-12-18T02:31:52;-3.40;99.90
44817;DHT22;30529;53.570;9.964;2022-12-18T02:34:22;-3.40;99.90
44817;DHT22;30529;53.570;9.964;2022-12-18T02:36:51;-3.40;99.90
44817;DHT22;30529;53.570;9.964;2022-12-18T02:39:19;-3.40;99.90
44817;DHT22;30529;53.570;9.964;2022-12-18T02:41:46;-3.40;99.90
44817;DHT22;30529;53.570;9.964;2022-12-18T02:44:14;-3.40;99.90
44817;DHT22;30529;53.570;9.964;2022-12-18T02:46:43;-3.40;99.90
44817;DHT22;30529;53.570;9.964;2022-12-18T02:49:49;-3.40;99.90
44817;DHT22;30529;53.570;9.964;2022-12-18T02:52:31;-3.40;99.90
44817;DHT22;30529;53.570;9.964;2022-12-18T02:57:55;-3.40;99.90
44817;DHT22;30529;53.570;9.964;2022-12-18T03:00:28;-3.40;99.90
44817;DHT22;30529;53.570;9.964;2022-12-18T03:05:38;-3.40;99.90
44817;DHT22;30529;53.570;9.964;2022-12-18T03:08:14;-3.40;99.90
44817;DHT22;30529;53.570;9.964;2022-12-18T03:10:47;-3.50;99.90
44817;DHT22;30529;53.570;9.964;2022-12-18T03:13:27;-3.50;99.90
44817;DHT22;30529;53.570;9.964;2022-12-18T03:15:55;-3.50;99.90
44817;DHT22;30529;53.570;9.964;2022-12-18T03:18:27;-3.50;99.90
44817;DHT22;30529;53.570;9.964;2022-12-18T03:20:58;-3.50;99.90
44817;DHT22;30529;53.570;9.964;2022-12-18T03:23:29;-3.50;99.90
44817;DHT22;30529;53.570;9.964;2022-12-18T03:26:01;-3.50;99.90
44817;DHT22;30529;53.570;9.964;2022-12-18T03:28:30;-3.50;99.90
44817;DHT22;30529;53.570;9.964;2022-12-18T03:31:00;-3.50;99.90
44817;DHT22;30529;53.570;9.964;2022-12-18T03:36:02;-3.60;99.90
44817;DHT22;30529;53.570;9.964;2022-12-18T03:38:28;-3.60;99.90
44817;DHT22;30529;53.570;9.964;2022-12-18T03:40:59;-3.70;99.90
44817;DHT22;30529;53.570;9.964;2022-12-18T03:43:41;-3.70;99.90
44817;DHT22;30529;53.570;9.964;2022-12-18T03:48:58;-3.70;99.90
44817;DHT22;30529;53.570;9.964;2022-12-18T03:51:52;-3.70;99.90
44817;DHT22;30529;53.570;9.964;2022-12-18T03:54:22;-3.70;99.90
44817;DHT22;30529;53.570;9.964;2022-12-18T03:56:58;-3.70;99.90
44817;DHT22;30529;53.570;9.964;2022-12-18T03:59:26;-3.80;99.90
44817;DHT22;30529;53.570;9.964;2022-12-18T04:01:54;-3.70;99.90
44817;DHT22;30529;53.570;9.964;2022-12-18T04:04:24;-3.70;99.90
44817;DHT22;30529;53.570;9.964;2022-12-18T04:06:51;-3.80;99.90
44817;DHT22;30529;53.570;9.964;2022-12-18T04:09:18;-3.80;99.90
44817;DHT22;30529;53.570;9.964;2022-12-18T04:11:46;-3.80;99.90
44817;DHT22;30529;53.570;9.964;2022-12-18T04:14:12;-3.80;99.90
44817;DHT22;30529;53.570;9.964;2022-12-18T04:16:38;-3.80;99.90
44817;DHT22;30529;53.570;9.964;2022-12-18T04:19:04;-3.90;99.90
44817;DHT22;30529;53.570;9.964;2022-12-18T04:21:30;-3.90;99.90
44817;DHT22;30529;53.570;9.964;2022-12-18T04:23:56;-3.90;99.90
44817;DHT22;30529;53.570;9.964;2022-12-18T04:26:22;-3.90;99.90
44817;DHT22;30529;53.570;9.964;2022-12-18T04:28:48;-3.90;99.90
44817;DHT22;30529;53.570;9.964;2022-12-18T04:31:14;-4.00;99.90
44817;DHT22;30529;53.570;9.964;2022-12-18T04:33:40;-4.00;99.90
44817;DHT22;30529;53.570;9.964;2022-12-18T04:36:06;-4.00;99.90
44817;DHT22;30529;53.570;9.964;2022-12-18T04:38:32;-4.00;99.90
44817;DHT22;30529;53.570;9.964;2022-12-18T04:40:58;-4.00;99.90
44817;DHT22;30529;53.570;9.964;2022-12-18T04:43:24;-4.00;99.90
44817;DHT22;30529;53.570;9.964;2022-12-18T04:45:50;-4.10;99.90
44817;DHT22;30529;53.570;9.964;2022-12-18T04:48:16;-4.10;99.90
44817;DHT22;30529;53.570;9.964;2022-12-18T04:50:42;-4.10;99.90
44817;DHT22;30529;53.570;9.964;2022-12-18T04:53:08;-4.10;99.90
44817;DHT22;30529;53.570;9.964;2022-12-18T04:55:34;-4.10;99.90
44817;DHT22;30529;53.570;9.964;2022-12-18T04:58:00;-4.10;99.90
44817;DHT22;30529;53.570;9.964;2022-12-18T05:00:26;-4.20;99.90
44817;DHT22;30529;53.570;9.964;2022-12-18T05:02:52;-4.20;99.90
44817;DHT22;30529;53.570;9.964;2022-12-18T05:05:18;-4.10;99.90
44817;DHT22;30529;53.570;9.964;2022-12-18T05:07:44;-4.20;99.90
44817;DHT22;30529;53.570;9.964;2022-12-18T05:10:10;-4.10;99.90
44817;DHT22;30529;53.570;9.964;2022-12-18T05:12:36;-4.20;99.90
44817;DHT22;30529;53.570;9.964;2022-12-18T05:15:27;-4.20;99.90
44817;DHT22;30529;53.570;9.964;2022-12-18T05:17:54;-4.20;99.90
44817;DHT22;30529;53.570;9.964;2022-12-18T05:20:19;-4.20;99.90
44817;DHT22;30529;53.570;9.964;2022-12-18T05:22:45;-4.20;99.90
44817;DHT22;30529;53.570;9.964;2022-12-18T05:25:11;-4.30;99.90
44817;DHT22;30529;53.570;9.964;2022-12-18T05:27:37;-4.30;99.90
44817;DHT22;30529;53.570;9.964;2022-12-18T05:30:04;-4.30;99.90
44817;DHT22;30529;53.570;9.964;2022-12-18T05:32:30;-4.30;99.90
44817;DHT22;30529;53.570;9.964;2022-12-18T05:34:56;-4.30;99.90
44817;DHT22;30529;53.570;9.964;2022-12-18T05:37:23;-4.30;99.90
44817;DHT22;30529;53.570;9.964;2022-12-18T05:39:49;-4.30;99.90
44817;DHT22;30529;53.570;9.964;2022-12-18T05:42:15;-4.30;99.90
44817;DHT22;30529;53.570;9.964;2022-12-18T05:44:41;-4.30;99.90
44817;DHT22;30529;53.570;9.964;2022-12-18T05:47:07;-4.30;99.90
44817;DHT22;30529;53.570;9.964;2022-12-18T05:49:32;-4.30;99.90
44817;DHT22;30529;53.570;9.964;2022-12-18T05:51:59;-4.30;99.90
44817;DHT22;30529;53.570;9.964;2022-12-18T05:54:27;-4.30;99.90
44817;DHT22;30529;53.570;9.964;2022-12-18T05:56:53;-4.30;99.90
44817;DHT22;30529;53.570;9.964;2022-12-18T05:59:20;-4.30;99.90
44817;DHT22;30529;53.570;9.964;2022-12-18T06:01:46;-4.30;99.90
44817;DHT22;30529;53.570;9.964;2022-12-18T06:04:12;-4.30;99.90
44817;DHT22;30529;53.570;9.964;2022-12-18T06:06:38;-4.30;99.90
44817;DHT22;30529;53.570;9.964;2022-12-18T06:09:04;-4.30;99.90
44817;DHT22;30529;53.570;9.964;2022-12-18T06:11:35;-4.30;99.90
44817;DHT22;30529;53.570;9.964;2022-12-18T06:14:01;-4.30;99.90
44817;DHT22;30529;53.570;9.964;2022-12-18T06:16:28;-4.30;99.90
44817;DHT22;30529;53.570;9.964;2022-12-18T06:19:01;-4.30;99.90
44817;DHT22;30529;53.570;9.964;2022-12-18T06:21:28;-4.30;99.90
44817;DHT22;30529;53.570;9.964;2022-12-18T06:23:55;-4.30;99.90
44817;DHT22;30529;53.570;9.964;2022-12-18T06:26:21;-4.30;99.90
44817;DHT22;30529;53.570;9.964;2022-12-18T06:28:47;-4.30;99.90
44817;DHT22;30529;53.570;9.964;2022-12-18T06:31:13;-4.30;99.90
44817;DHT22;30529;53.570;9.964;2022-12-18T06:33:39;-4.30;99.90
44817;DHT22;30529;53.570;9.964;2022-12-18T06:36:07;-4.30;99.90
44817;DHT22;30529;53.570;9.964;2022-12-18T06:38:35;-4.40;99.90
44817;DHT22;30529;53.570;9.964;2022-12-18T06:41:09;-4.30;99.90
44817;DHT22;30529;53.570;9.964;2022-12-18T06:43:36;-4.40;99.90
44817;DHT22;30529;53.570;9.964;2022-12-18T06:46:03;-4.40;99.90
44817;DHT22;30529;53.570;9.964;2022-12-18T06:48:30;-4.40;99.90
44817;DHT22;30529;53.570;9.964;2022-12-18T06:50:56;-4.40;99.90
44817;DHT22;30529;53.570;9.964;2022-12-18T06:53:22;-4.40;99.90
44817;DHT22;30529;53.570;9.964;2022-12-18T06:55:48;-4.40;99.90
44817;DHT22;30529;53.570;9.964;2022-12-18T06:58:14;-4.40;99.90
44817;DHT22;30529;53.570;9.964;2022-12-18T07:00:40;-4.50;99.90
44817;DHT22;30529;53.570;9.964;2022-12-18T07:03:06;-4.40;99.90
44817;DHT22;30529;53.570;9.964;2022-12-18T07:05:32;-4.40;99.90
44817;DHT22;30529;53.570;9.964;2022-12-18T07:07:58;-4.50;99.90
44817;DHT22;30529;53.570;9.964;2022-12-18T07:10:25;-4.40;99.90
44817;DHT22;30529;53.570;9.964;2022-12-18T07:12:51;-4.50;99.90
44817;DHT22;30529;53.570;9.964;2022-12-18T07:15:17;-4.50;99.90
44817;DHT22;30529;53.570;9.964;2022-12-18T07:17:43;-4.50;99.90
44817;DHT22;30529;53.570;9.964;2022-12-18T07:20:09;-4.50;99.90
44817;DHT22;30529;53.570;9.964;2022-12-18T07:22:35;-4.50;99.90
44817;DHT22;30529;53.570;9.964;2022-12-18T07:25:01;-4.50;99.90
44817;DHT22;30529;53.570;9.964;2022-12-18T07:27:27;-4.50;99.90
44817;DHT22;30529;53.570;9.964;2022-12-18T07:29:53;-4.50;99.90
44817;DHT22;30529;53.570;9.964;2022-12-18T07:32:20;-4.50;99.90
44817;DHT22;30529;53.570;9.964;2022-12-18T07:34:46;-4.50;99.90
44817;DHT22;30529;53.570;9.964;2022-12-18T07:37:12;-4.50;99.90
44817;DHT22;30529;53.570;9.964;2022-12-18T07:39:38;-4.50;99.90
44817;DHT22;30529;53.570;9.964;2022-12-18T07:42:04;-4.50;99.90
44817;DHT22;30529;53.570;9.964;2022-12-18T07:44:49;-4.40;99.90
44817;DHT22;30529;53.570;9.964;2022-12-18T07:47:15;-4.40;99.90
44817;DHT22;30529;53.570;9.964;2022-12-18T07:49:41;-4.40;99.90
44817;DHT22;30529;53.570;9.964;2022-12-18T07:52:07;-4.30;99.90
44817;DHT22;30529;53.570;9.964;2022-12-18T07:54:34;-4.40;99.90
44817;DHT22;30529;53.570;9.964;2022-12-18T07:57:00;-4.30;99.90
44817;DHT22;30529;53.570;9.964;2022-12-18T07:59:26;-4.30;99.90
44817;DHT22;30529;53.570;9.964;2022-12-18T08:01:52;-4.30;99.90
44817;DHT22;30529;53.570;9.964;2022-12-18T08:04:18;-4.30;99.90
44817;DHT22;30529;53.570;9.964;2022-12-18T08:06:44;-4.30;99.90
44817;DHT22;30529;53.570;9.964;2022-12-18T08:09:10;-4.20;99.90
44817;DHT22;30529;53.570;9.964;2022-12-18T08:11:36;-4.30;99.90
44817;DHT22;30529;53.570;9.964;2022-12-18T08:14:02;-4.20;99.90
44817;DHT22;30529;53.570;9.964;2022-12-18T08:16:28;-4.20;99.90
44817;DHT22;30529;53.570;9.964;2022-12-18T08:18:54;-4.20;99.90
44817;DHT22;30529;53.570;9.964;2022-12-18T08:21:22;-4.20;99.90
44817;DHT22;30529;53.570;9.964;2022-12-18T08:23:50;-4.20;99.90
44817;DHT22;30529;53.570;9.964;2022-12-18T08:26:16;-4.20;99.90
44817;DHT22;30529;53.570;9.964;2022-12-18T08:28:42;-4.10;99.90
44817;DHT22;30529;53.570;9.964;2022-12-18T08:31:09;-4.10;99.90
44817;DHT22;30529;53.570;9.964;2022-12-18T08:33:36;-4.10;99.90
44817;DHT22;30529;53.570;9.964;2022-12-18T08:36:04;-4.10;99.90
44817;DHT22;30529;53.570;9.964;2022-12-18T08:38:31;-4.00;99.90
44817;DHT22;30529;53.570;9.964;2022-12-18T08:41:01;-4.00;99.90
44817;DHT22;30529;53.570;9.964;2022-12-18T08:43:28;-4.00;99.90
44817;DHT22;30529;53.570;9.964;2022-12-18T08:46:12;-4.00;99.90
44817;DHT22;30529;53.570;9.964;2022-12-18T08:48:38;-3.90;99.90
44817;DHT22;30529;53.570;9.964;2022-12-18T08:51:04;-4.00;99.90
44817;DHT22;30529;53.570;9.964;2022-12-18T08:53:30;-4.00;99.90
44817;DHT22;30529;53.570;9.964;2022-12-18T08:55:56;-3.90;99.90
44817;DHT22;30529;53.570;9.964;2022-12-18T08:58:23;-3.90;99.90
44817;DHT22;30529;53.570;9.964;2022-12-18T09:00:49;-3.90;99.90
44817;DHT22;30529;53.570;9.964;2022-12-18T09:03:16;-3.80;99.90
44817;DHT22;30529;53.570;9.964;2022-12-18T09:05:43;-3.80;99.90
44817;DHT22;30529;53.570;9.964;2022-12-18T09:08:09;-3.80;99.90
44817;DHT22;30529;53.570;9.964;2022-12-18T09:10:42;-3.70;99.90
44817;DHT22;30529;53.570;9.964;2022-12-18T09:13:13;-3.70;99.90
44817;DHT22;30529;53.570;9.964;2022-12-18T09:15:44;-3.60;99.90
44817;DHT22;30529;53.570;9.964;2022-12-18T09:18:15;-3.60;99.90
44817;DHT22;30529;53.570;9.964;2022-12-18T09:20:41;-3.60;99.90
44817;DHT22;30529;53.570;9.964;2022-12-18T09:23:08;-3.50;99.90
44817;DHT22;30529;53.570;9.964;2022-12-18T09:25:35;-3.50;99.90
44817;DHT22;30529;53.570;9.964;2022-12-18T09:28:16;-3.50;99.90
44817;DHT22;30529;53.570;9.964;2022-12-18T09:30:44;-3.40;99.90
44817;DHT22;30529;53.570;9.964;2022-12-18T09:33:11;-3.40;99.90
44817;DHT22;30529;53.570;9.964;2022-12-18T09:35:41;-3.40;99.90
44817;DHT22;30529;53.570;9.964;2022-12-18T09:38:12;-3.30;99.90
44817;DHT22;30529;53.570;9.964;2022-12-18T09:40:43;-3.20;99.90
44817;DHT22;30529;53.570;9.964;2022-12-18T09:43:28;-3.10;99.90
44817;DHT22;30529;53.570;9.964;2022-12-18T09:46:00;-3.10;99.90
44817;DHT22;30529;53.570;9.964;2022-12-18T09:48:34;-3.10;99.90
44817;DHT22;30529;53.570;9.964;2022-12-18T09:51:09;-3.10;99.90
44817;DHT22;30529;53.570;9.964;2022-12-18T09:53:39;-3.00;99.90
44817;DHT22;30529;53.570;9.964;2022-12-18T09:56:12;-3.10;99.90
44817;DHT22;30529;53.570;9.964;2022-12-18T09:59:02;-3.00;99.90
44817;DHT22;30529;53.570;9.964;2022-12-18T10:01:30;-3.00;99.90
44817;DHT22;30529;53.570;9.964;2022-12-18T10:03:57;-2.80;99.90
44817;DHT22;30529;53.570;9.964;2022-12-18T10:06:32;-2.80;99.90
44817;DHT22;30529;53.570;9.964;2022-12-18T10:09:15;-2.70;99.90
44817;DHT22;30529;53.570;9.964;2022-12-18T10:15:10;-2.60;99.90
44817;DHT22;30529;53.570;9.964;2022-12-18T10:18:27;-2.60;99.90
44817;DHT22;30529;53.570;9.964;2022-12-18T10:21:02;-2.50;99.90
44817;DHT22;30529;53.570;9.964;2022-12-18T10:26:14;-2.30;99.90
44817;DHT22;30529;53.570;9.964;2022-12-18T10:28:41;-2.30;99.90
44817;DHT22;30529;53.570;9.964;2022-12-18T10:31:19;-2.30;99.90
44817;DHT22;30529;53.570;9.964;2022-12-18T10:33:45;-2.40;99.90
44817;DHT22;30529;53.570;9.964;2022-12-18T10:36:12;-2.30;99.90
44817;DHT22;30529;53.570;9.964;2022-12-18T10:38:38;-2.30;99.90
44817;DHT22;30529;53.570;9.964;2022-12-18T10:41:08;-2.30;99.90
44817;DHT22;30529;53.570;9.964;2022-12-18T10:46:36;-2.20;99.90
44817;DHT22;30529;53.570;9.964;2022-12-18T10:49:02;-2.20;99.90
44817;DHT22;30529;53.570;9.964;2022-12-18T10:51:33;-2.10;99.90
44817;DHT22;30529;53.570;9.964;2022-12-18T10:56:29;-1.90;99.90
44817;DHT22;30529;53.570;9.964;2022-12-18T10:59:01;-1.70;99.90
44817;DHT22;30529;53.570;9.964;2022-12-18T11:01:47;-1.60;99.90
44817;DHT22;30529;53.570;9.964;2022-12-18T11:04:25;-1.60;99.90
44817;DHT22;30529;53.570;9.964;2022-12-18T11:07:01;-1.60;99.90
44817;DHT22;30529;53.570;9.964;2022-12-18T11:09:30;-1.60;99.90
44817;DHT22;30529;53.570;9.964;2022-12-18T11:12:03;-1.60;99.90
44817;DHT22;30529;53.570;9.964;2022-12-18T11:14:42;-1.60;99.90
44817;DHT22;30529;53.570;9.964;2022-12-18T11:17:41;-1.60;99.90
44817;DHT22;30529;53.570;9.964;2022-12-18T11:20:33;-1.60;99.90
44817;DHT22;30529;53.570;9.964;2022-12-18T11:23:11;-1.50;99.90
44817;DHT22;30529;53.570;9.964;2022-12-18T11:25:39;-1.60;99.90
44817;DHT22;30529;53.570;9.964;2022-12-18T11:31:23;-1.50;99.90
44817;DHT22;30529;53.570;9.964;2022-12-18T11:34:12;-1.50;99.90
44817;DHT22;30529;53.570;9.964;2022-12-18T11:36:45;-1.50;99.90
44817;DHT22;30529;53.570;9.964;2022-12-18T11:39:30;-1.40;99.90
44817;DHT22;30529;53.570;9.964;2022-12-18T11:42:08;-1.40;99.90
44817;DHT22;30529;53.570;9.964;2022-12-18T11:44:47;-1.40;99.90
44817;DHT22;30529;53.570;9.964;2022-12-18T11:50:02;-1.30;99.90
44817;DHT22;30529;53.570;9.964;2022-12-18T11:52:39;-1.40;99.90
44817;DHT22;30529;53.570;9.964;2022-12-18T11:55:27;-1.40;99.90
44817;DHT22;30529;53.570;9.964;2022-12-18T11:58:07;-1.50;99.90
44817;DHT22;30529;53.570;9.964;2022-12-18T12:00:49;-1.50;99.90
44817;DHT22;30529;53.570;9.964;2022-12-18T12:09:35;-1.50;99.90
44817;DHT22;30529;53.570;9.964;2022-12-18T12:18:06;-1.50;99.90
44817;DHT22;30529;53.570;9.964;2022-12-18T12:21:13;-1.40;99.90
44817;DHT22;30529;53.570;9.964;2022-12-18T12:23:46;-1.30;99.90
44817;DHT22;30529;53.570;9.964;2022-12-18T12:27:06;-1.20;99.90
44817;DHT22;30529;53.570;9.964;2022-12-18T12:29:42;-1.20;99.90
44817;DHT22;30529;53.570;9.964;2022-12-18T12:32:22;-1.20;99.90
44817;DHT22;30529;53.570;9.964;2022-12-18T12:35:15;-1.10;99.90
44817;DHT22;30529;53.570;9.964;2022-12-18T12:38:07;-1.10;99.90
44817;DHT22;30529;53.570;9.964;2022-12-18T12:40:39;-1.10;99.90
44817;DHT22;30529;53.570;9.964;2022-12-18T12:43:31;-1.10;99.90
44817;DHT22;30529;53.570;9.964;2022-12-18T12:46:07;-1.00;99.90
44817;DHT22;30529;53.570;9.964;2022-12-18T12:51:27;-0.90;99.90
44817;DHT22;30529;53.570;9.964;2022-12-18T12:53:56;-0.90;99.90
44817;DHT22;30529;53.570;9.964;2022-12-18T12:56:26;-0.90;99.90
44817;DHT22;30529;53.570;9.964;2022-12-18T12:59:15;-0.90;99.90
44817;DHT22;30529;53.570;9.964;2022-12-18T13:04:49;-0.80;99.90
44817;DHT22;30529;53.570;9.964;2022-12-18T13:07:32;-0.90;99.90
44817;DHT22;30529;53.570;9.964;2022-12-18T13:16:06;-0.80;99.90
44817;DHT22;30529;53.570;9.964;2022-12-18T13:18:33;-0.80;99.90
44817;DHT22;30529;53.570;9.964;2022-12-18T13:21:14;-0.80;99.90
44817;DHT22;30529;53.570;9.964;2022-12-18T13:23:46;-0.80;99.90
44817;DHT22;30529;53.570;9.964;2022-12-18T13:30:10;-0.90;99.90
44817;DHT22;30529;53.570;9.964;2022-12-18T13:38:36;-1.30;99.90
44817;DHT22;30529;53.570;9.964;2022-12-18T13:43:47;-1.40;99.90
44817;DHT22;30529;53.570;9.964;2022-12-18T13:46:41;-1.50;99.90
44817;DHT22;30529;53.570;9.964;2022-12-18T13:49:41;-1.60;99.90
44817;DHT22;30529;53.570;9.964;2022-12-18T13:52:18;-1.30;99.90
44817;DHT22;30529;53.570;9.964;2022-12-18T13:54:56;-1.30;99.90
44817;DHT22;30529;53.570;9.964;2022-12-18T14:00:29;-1.60;99.90
44817;DHT22;30529;53.570;9.964;2022-12-18T14:02:57;-1.60;99.90
44817;DHT22;30529;53.570;9.964;2022-12-18T14:05:31;-1.70;99.90
44817;DHT22;30529;53.570;9.964;2022-12-18T14:08:13;-1.70;99.90
44817;DHT22;30529;53.570;9.964;2022-12-18T14:10:41;-1.70;99.90
44817;DHT22;30529;53.570;9.964;2022-12-18T14:13:17;-1.70;99.90
44817;DHT22;30529;53.570;9.964;2022-12-18T14:15:46;-1.70;99.90
44817;DHT22;30529;53.570;9.964;2022-12-18T14:18:19;-1.70;99.90
44817;DHT22;30529;53.570;9.964;2022-12-18T14:20:47;-1.70;99.90
44817;DHT22;30529;53.570;9.964;2022-12-18T14:23:34;-1.80;99.90
44817;DHT22;30529;53.570;9.964;2022-12-18T14:26:02;-1.80;99.90
44817;DHT22;30529;53.570;9.964;2022-12-18T14:28:28;-1.80;99.90
44817;DHT22;30529;53.570;9.964;2022-12-18T14:30:55;-1.90;99.90
44817;DHT22;30529;53.570;9.964;2022-12-18T14:33:24;-2.00;99.90
44817;DHT22;30529;53.570;9.964;2022-12-18T14:36:01;-2.00;99.90
44817;DHT22;30529;53.570;9.964;2022-12-18T14:38:39;-2.00;99.90
44817;DHT22;30529;53.570;9.964;2022-12-18T14:41:17;-2.10;99.90
44817;DHT22;30529;53.570;9.964;2022-12-18T14:43:53;-2.10;99.90
44817;DHT22;30529;53.570;9.964;2022-12-18T14:46:35;-2.00;99.90
44817;DHT22;30529;53.570;9.964;2022-12-18T14:49:04;-2.00;99.90
44817;DHT22;30529;53.570;9.964;2022-12-18T14:51:33;-2.10;99.90
44817;DHT22;30529;53.570;9.964;2022-12-18T14:54:05;-2.20;99.90
44817;DHT22;30529;53.570;9.964;2022-12-18T14:56:51;-2.20;99.90
44817;DHT22;30529;53.570;9.964;2022-12-18T14:59:23;-2.20;99.90
44817;DHT22;30529;53.570;9.964;2022-12-18T15:01:59;-2.30;99.90
44817;DHT22;30529;53.570;9.964;2022-12-18T15:04:32;-2.30;99.90
44817;DHT22;30529;53.570;9.964;2022-12-18T15:07:08;-2.30;99.90
44817;DHT22;30529;53.570;9.964;2022-12-18T15:09:35;-2.40;99.90
44817;DHT22;30529;53.570;9.964;2022-12-18T15:12:02;-2.40;99.90
44817;DHT22;30529;53.570;9.964;2022-12-18T15:16:58;-2.40;99.90
44817;DHT22;30529;53.570;9.964;2022-12-18T15:19:38;-2.40;99.90
44817;DHT22;30529;53.570;9.964;2022-12-18T15:22:17;-2.40;99.90
44817;DHT22;30529;53.570;9.964;2022-12-18T15:24:44;-2.50;99.90
44817;DHT22;30529;53.570;9.964;2022-12-18T15:27:25;-2.50;99.90
44817;DHT22;30529;53.570;9.964;2022-12-18T15:32:35;-2.50;99.90
44817;DHT22;30529;53.570;9.964;2022-12-18T15:37:43;-2.50;99.90
44817;DHT22;30529;53.570;9.964;2022-12-18T15:40:23;-2.50;99.90
44817;DHT22;30529;53.570;9.964;2022-12-18T15:42:52;-2.40;99.90
44817;DHT22;30529;53.570;9.964;2022-12-18T15:45:38;-2.40;99.90
44817;DHT22;30529;53.570;9.964;2022-12-18T15:48:20;-2.40;99.90
44817;DHT22;30529;53.570;9.964;2022-12-18T15:50:47;-2.30;99.90
44817;DHT22;30529;53.570;9.964;2022-12-18T15:53:13;-2.30;99.90
44817;DHT22;30529;53.570;9.964;2022-12-18T15:55:39;-2.20;99.90
44817;DHT22;30529;53.570;9.964;2022-12-18T15:58:24;-2.20;99.90
44817;DHT22;30529;53.570;9.964;2022-12-18T16:00:50;-2.20;99.90
44817;DHT22;30529;53.570;9.964;2022-12-18T16:03:16;-2.20;99.90
44817;DHT22;30529;53.570;9.964;2022-12-18T16:05:42;-2.20;99.90
44817;DHT22;30529;53.570;9.964;2022-12-18T16:08:08;-2.20;99.90
44817;DHT22;30529;53.570;9.964;2022-12-18T16:10:34;-2.20;99.90
44817;DHT22;30529;53.570;9.964;2022-12-18T16:13:01;-2.20;99.90
44817;DHT22;30529;53.570;9.964;2022-12-18T16:15:27;-2.20;99.90
44817;DHT22;30529;53.570;9.964;2022-12-18T16:17:52;-2.20;99.90
44817;DHT22;30529;53.570;9.964;2022-12-18T16:20:21;-2.20;99.90
44817;DHT22;30529;53.570;9.964;2022-12-18T16:22:48;-2.20;99.90
44817;DHT22;30529;53.570;9.964;2022-12-18T16:25:25;-2.20;99.90
44817;DHT22;30529;53.570;9.964;2022-12-18T16:27:52;-2.20;99.90
44817;DHT22;30529;53.570;9.964;2022-12-18T16:30:25;-2.30;99.90
44817;DHT22;30529;53.570;9.964;2022-12-18T16:32:57;-2.30;99.90
44817;DHT22;30529;53.570;9.964;2022-12-18T16:35:24;-2.20;99.90
44817;DHT22;30529;53.570;9.964;2022-12-18T16:37:50;-2.30;99.90
44817;DHT22;30529;53.570;9.964;2022-12-18T16:40:17;-2.30;99.90
44817;DHT22;30529;53.570;9.964;2022-12-18T16:42:45;-2.20;99.90
44817;DHT22;30529;53.570;9.964;2022-12-18T16:45:15;-2.20;99.90
44817;DHT22;30529;53.570;9.964;2022-12-18T16:47:41;-2.20;99.90
44817;DHT22;30529;53.570;9.964;2022-12-18T16:50:08;-2.20;99.90
44817;DHT22;30529;53.570;9.964;2022-12-18T16:52:34;-2.20;99.90
44817;DHT22;30529;53.570;9.964;2022-12-18T16:55:00;-2.20;99.90
44817;DHT22;30529;53.570;9.964;2022-12-18T16:57:26;-2.30;99.90
44817;DHT22;30529;53.570;9.964;2022-12-18T16:59:52;-2.30;99.90
44817;DHT22;30529;53.570;9.964;2022-12-18T17:02:23;-2.30;99.90
44817;DHT22;30529;53.570;9.964;2022-12-18T17:04:53;-2.30;99.90
44817;DHT22;30529;53.570;9.964;2022-12-18T17:07:19;-2.30;99.90
44817;DHT22;30529;53.570;9.964;2022-12-18T17:09:45;-2.30;99.90
44817;DHT22;30529;53.570;9.964;2022-12-18T17:12:11;-2.30;99.90
44817;DHT22;30529;53.570;9.964;2022-12-18T17:14:38;-2.30;99.90
44817;DHT22;30529;53.570;9.964;2022-12-18T17:17:04;-2.20;99.90
44817;DHT22;30529;53.570;9.964;2022-12-18T17:19:30;-2.20;99.90